createdAt,value
2023-05-01T00:01:45.522Z,5.57
2023-05-01T00:04:15.006Z,5.97
2023-05-01T00:06:43.146Z,5.80
2023-05-01T00:09:11.173Z,5.72
2023-05-01T00:11:39.081Z,5.50
2023-05-01T00:14:07.116Z,5.40
2023-05-01T00:16:36.199Z,5.75
2023-05-01T00:19:05.025Z,5.00
2023-05-01T00:21:34.588Z,4.93
2023-05-01T00:24:02.555Z,4.90
2023-05-01T00:26:31.578Z,5.07
2023-05-01T00:28:59.901Z,6.38
2023-05-01T00:31:28.157Z,4.80
2023-05-01T00:33:57.661Z,5.10
2023-05-01T00:36:25.601Z,5.30
2023-05-01T00:38:54.870Z,5.35
2023-05-01T00:41:22.793Z,4.93
2023-05-01T00:43:50.641Z,5.15
2023-05-01T00:46:19.201Z,5.40
2023-05-01T00:48:47.338Z,5.38
2023-05-01T00:51:15.940Z,5.60
2023-05-01T00:53:44.574Z,5.95
2023-05-01T00:56:14.020Z,5.32
2023-05-01T00:58:42.227Z,5.55
2023-05-01T01:01:10.198Z,5.85
2023-05-01T01:03:38.352Z,5.70
2023-05-01T01:06:09.567Z,5.82
2023-05-01T01:08:41.450Z,5.63
2023-05-01T01:11:19.815Z,5.53
2023-05-01T01:13:53.671Z,5.70
2023-05-01T01:16:25.731Z,5.40
2023-05-01T01:18:57.757Z,5.70
2023-05-01T01:21:29.539Z,5.13
2023-05-01T01:24:48.628Z,5.30
2023-05-01T01:27:39.725Z,5.88
2023-05-01T01:30:29.474Z,6.10
2023-05-01T01:33:15.581Z,6.05
2023-05-01T01:35:55.060Z,5.90
2023-05-01T01:38:25.890Z,6.15
2023-05-01T01:40:59.038Z,6.00
2023-05-01T01:43:27.749Z,6.28
2023-05-01T01:46:00.536Z,5.85
2023-05-01T01:48:32.501Z,5.35
2023-05-01T01:51:02.893Z,5.65
2023-05-01T01:53:31.244Z,5.53
2023-05-01T01:56:03.054Z,5.22
2023-05-01T01:58:32.647Z,6.03
2023-05-01T02:01:01.680Z,5.15
2023-05-01T02:03:30.633Z,5.00
2023-05-01T02:06:01.096Z,5.13
2023-05-01T02:08:30.629Z,5.53
2023-05-01T02:11:01.980Z,5.97
2023-05-01T02:13:31.601Z,5.50
2023-05-01T02:16:00.659Z,4.65
2023-05-01T02:18:30.213Z,5.10
2023-05-01T02:21:02.202Z,4.68
2023-05-01T02:23:31.062Z,4.70
2023-05-01T02:26:02.050Z,4.35
2023-05-01T02:28:31.366Z,4.90
2023-05-01T02:31:00.132Z,4.75
2023-05-01T02:33:29.284Z,4.20
2023-05-01T02:35:57.404Z,4.00
2023-05-01T02:38:26.838Z,4.15
2023-05-01T02:40:58.766Z,4.55
2023-05-01T02:43:28.118Z,4.07
2023-05-01T02:45:56.160Z,4.22
2023-05-01T02:48:27.605Z,4.70
2023-05-01T02:50:56.868Z,4.82
2023-05-01T02:53:27.335Z,3.53
2023-05-01T02:56:04.892Z,3.97
2023-05-01T02:58:33.817Z,3.22
2023-05-01T03:01:02.218Z,3.83
2023-05-01T03:03:30.455Z,3.55
2023-05-01T03:05:58.752Z,3.67
2023-05-01T03:08:28.118Z,4.00
2023-05-01T03:10:56.024Z,4.18
2023-05-01T03:13:24.433Z,4.00
2023-05-01T03:15:52.349Z,3.90
2023-05-01T03:18:21.907Z,4.45
2023-05-01T03:20:53.634Z,4.00
2023-05-01T03:23:23.256Z,3.88
2023-05-01T03:25:52.886Z,3.75
2023-05-01T03:28:22.411Z,3.97
2023-05-01T03:30:52.777Z,4.20
2023-05-01T03:33:21.126Z,3.80
2023-05-01T03:35:49.289Z,4.50
2023-05-01T03:38:17.353Z,4.20
2023-05-01T03:41:06.162Z,3.53
2023-05-01T03:44:00.837Z,4.13
2023-05-01T03:46:44.636Z,4.03
2023-05-01T03:49:19.145Z,3.78
2023-05-01T03:51:49.353Z,4.10
2023-05-01T03:54:17.405Z,3.78
2023-05-01T03:57:09.507Z,4.00
2023-05-01T03:59:37.679Z,3.63
2023-05-01T04:02:06.207Z,3.28
2023-05-01T04:04:36.957Z,3.13
2023-05-01T04:07:05.745Z,3.28
2023-05-01T04:09:33.745Z,3.80
2023-05-01T04:12:02.320Z,3.47
2023-05-01T04:14:32.041Z,3.90
2023-05-01T04:17:00.686Z,3.42
2023-05-01T04:19:30.182Z,3.53
2023-05-01T04:21:59.852Z,3.65
2023-05-01T04:24:27.767Z,3.67
2023-05-01T04:26:56.030Z,3.40
2023-05-01T04:29:23.896Z,3.35
2023-05-01T04:31:54.286Z,3.45
2023-05-01T04:34:22.402Z,3.15
2023-05-01T04:36:51.888Z,3.83
2023-05-01T04:39:20.166Z,3.50
2023-05-01T04:41:49.971Z,3.60
2023-05-01T04:44:17.965Z,3.25
2023-05-01T04:46:49.171Z,2.95
2023-05-01T04:49:19.363Z,3.40
2023-05-01T04:51:48.329Z,3.20
2023-05-01T04:54:18.577Z,3.03
2023-05-01T04:56:48.033Z,3.10
2023-05-01T04:59:15.999Z,3.40
2023-05-01T05:01:45.172Z,3.45
2023-05-01T05:04:13.535Z,4.10
2023-05-01T05:06:43.208Z,3.28
2023-05-01T05:09:18.751Z,3.22
2023-05-01T05:11:48.412Z,3.38
2023-05-01T05:14:25.257Z,3.53
2023-05-01T05:16:53.768Z,3.60
2023-05-01T05:19:21.994Z,3.47
2023-05-01T05:21:52.060Z,3.40
2023-05-01T05:24:20.900Z,2.28
2023-05-01T05:26:52.034Z,3.00
2023-05-01T05:29:21.063Z,3.72
2023-05-01T05:31:51.923Z,4.05
2023-05-01T05:34:20.190Z,3.22
2023-05-01T05:36:48.642Z,3.17
2023-05-01T05:39:23.937Z,3.20
2023-05-01T05:41:53.975Z,3.17
2023-05-01T05:44:23.279Z,3.22
2023-05-01T05:46:52.474Z,3.38
2023-05-01T05:49:29.196Z,3.40
2023-05-01T05:51:57.410Z,3.15
2023-05-01T05:54:27.440Z,2.80
2023-05-01T05:56:55.751Z,3.47
2023-05-01T05:59:24.272Z,3.13
2023-05-01T06:01:52.621Z,3.65
2023-05-01T06:04:20.760Z,3.53
2023-05-01T06:06:50.188Z,3.40
2023-05-01T06:09:19.380Z,3.10
2023-05-01T06:11:49.204Z,3.00
2023-05-01T06:14:18.078Z,3.45
2023-05-01T06:16:46.937Z,3.13
2023-05-01T06:19:16.124Z,3.00
2023-05-01T06:21:45.772Z,2.97
2023-05-01T06:24:14.036Z,3.38
2023-05-01T06:26:52.181Z,3.30
2023-05-01T06:29:21.460Z,3.28
2023-05-01T06:31:49.720Z,3.85
2023-05-01T06:34:19.140Z,3.60
2023-05-01T06:36:52.067Z,3.25
2023-05-01T06:39:20.518Z,3.38
2023-05-01T06:41:48.895Z,2.78
2023-05-01T06:44:22.128Z,2.75
2023-05-01T06:46:51.122Z,2.88
2023-05-01T06:49:19.153Z,3.00
2023-05-01T06:51:47.000Z,3.10
2023-05-01T06:54:15.446Z,3.05
2023-05-01T06:56:43.376Z,1.73
2023-05-01T06:59:11.253Z,2.67
2023-05-01T07:01:40.853Z,2.50
2023-05-01T07:04:08.859Z,2.85
2023-05-01T07:06:37.378Z,2.90
2023-05-01T07:09:05.664Z,2.60
2023-05-01T07:11:34.012Z,3.33
2023-05-01T07:14:02.506Z,2.53
2023-05-01T07:16:30.464Z,2.25
2023-05-01T07:18:59.717Z,2.65
2023-05-01T07:21:27.590Z,2.83
2023-05-01T07:23:55.439Z,2.38
2023-05-01T07:26:23.826Z,2.13
2023-05-01T07:28:51.756Z,2.72
2023-05-01T07:31:19.746Z,2.00
2023-05-01T07:33:48.157Z,2.50
2023-05-01T07:36:20.458Z,2.50
2023-05-01T07:38:48.876Z,2.65
2023-05-01T07:41:17.182Z,2.22
2023-05-01T07:43:45.097Z,2.40
2023-05-01T07:46:13.408Z,2.78
2023-05-01T07:48:44.013Z,2.47
2023-05-01T07:51:13.143Z,2.05
2023-05-01T07:53:42.684Z,2.47
2023-05-01T07:56:11.285Z,2.60
2023-05-01T07:58:41.084Z,2.03
2023-05-01T08:01:09.214Z,2.00
2023-05-01T08:03:37.466Z,2.50
2023-05-01T08:06:06.110Z,2.50
2023-05-01T08:08:34.035Z,2.10
2023-05-01T08:11:03.295Z,2.17
2023-05-01T08:13:31.255Z,2.00
2023-05-01T08:16:02.297Z,2.10
2023-05-01T08:18:30.271Z,2.15
2023-05-01T08:20:58.192Z,2.03
2023-05-01T08:23:26.311Z,1.92
2023-05-01T08:25:54.146Z,2.10
2023-05-01T08:28:25.193Z,2.05
2023-05-01T08:30:53.143Z,1.90
2023-05-01T08:33:21.267Z,1.80
2023-05-01T08:35:49.883Z,1.80
2023-05-01T08:38:18.287Z,2.40
2023-05-01T08:40:50.172Z,1.75
2023-05-01T08:43:18.495Z,1.90
2023-05-01T08:45:48.707Z,2.00
2023-05-01T08:48:18.872Z,1.70
2023-05-01T08:50:48.178Z,1.73
2023-05-01T08:53:17.154Z,1.80
2023-05-01T08:55:46.683Z,1.98
2023-05-01T08:58:15.204Z,1.67
2023-05-01T09:00:43.130Z,1.90
2023-05-01T09:03:14.270Z,1.90
2023-05-01T09:05:42.430Z,2.22
2023-05-01T09:08:10.915Z,1.90
2023-05-01T09:10:42.872Z,1.73
2023-05-01T09:13:11.194Z,1.90
2023-05-01T09:15:39.641Z,2.03
2023-05-01T09:18:10.149Z,1.85
2023-05-01T09:20:40.436Z,2.30
2023-05-01T09:23:08.648Z,1.77
2023-05-01T09:25:36.586Z,2.00
2023-05-01T09:28:07.162Z,1.92
2023-05-01T09:30:36.289Z,1.60
2023-05-01T09:33:09.009Z,2.17
2023-05-01T09:38:21.417Z,1.80
2023-05-01T09:40:49.703Z,2.10
2023-05-01T09:43:26.166Z,1.73
2023-05-01T09:46:06.881Z,1.90
2023-05-01T09:48:36.204Z,1.92
2023-05-01T09:51:22.395Z,1.92
2023-05-01T09:53:54.579Z,1.80
2023-05-01T09:56:24.002Z,2.28
2023-05-01T09:58:52.958Z,2.05
2023-05-01T10:01:39.180Z,1.90
2023-05-01T10:04:07.391Z,1.70
2023-05-01T10:06:37.256Z,2.40
2023-05-01T10:09:07.081Z,1.90
2023-05-01T10:11:49.693Z,1.70
2023-05-01T10:14:18.414Z,1.73
2023-05-01T10:16:46.704Z,2.10
2023-05-01T10:19:15.150Z,1.60
2023-05-01T10:21:44.505Z,2.03
2023-05-01T10:24:12.434Z,1.77
2023-05-01T10:26:40.506Z,1.60
2023-05-01T10:29:08.679Z,1.60
2023-05-01T10:31:36.706Z,2.03
2023-05-01T10:34:04.906Z,1.65
2023-05-01T10:36:39.887Z,1.50
2023-05-01T10:39:32.771Z,2.17
2023-05-01T10:42:05.382Z,2.20
2023-05-01T10:44:35.325Z,1.80
2023-05-01T10:47:42.271Z,2.30
2023-05-01T10:50:11.355Z,2.08
2023-05-01T10:53:18.812Z,2.00
2023-05-01T10:56:44.398Z,1.92
2023-05-01T10:59:13.412Z,1.83
2023-05-01T11:01:41.783Z,1.67
2023-05-01T11:04:51.307Z,2.00
2023-05-01T11:07:22.762Z,1.70
2023-05-01T11:09:55.256Z,1.67
2023-05-01T11:12:48.922Z,1.85
2023-05-01T11:15:32.301Z,1.70
2023-05-01T11:18:01.254Z,1.77
2023-05-01T11:20:49.433Z,1.67
2023-05-01T11:23:21.541Z,1.60
2023-05-01T11:25:52.140Z,1.60
2023-05-01T11:28:22.490Z,1.55
2023-05-01T11:30:50.487Z,1.67
2023-05-01T11:33:26.215Z,2.00
2023-05-01T11:36:02.379Z,1.70
2023-05-01T11:38:31.879Z,1.70
2023-05-01T11:41:02.997Z,2.03
2023-05-01T11:43:33.277Z,1.80
2023-05-01T11:46:03.984Z,1.58
2023-05-01T11:48:32.593Z,1.38
2023-05-01T11:51:00.566Z,1.80
2023-05-01T11:53:28.828Z,1.50
2023-05-01T11:55:59.787Z,1.38
2023-05-01T11:58:36.272Z,1.70
2023-05-01T12:01:04.639Z,1.85
2023-05-01T12:03:42.491Z,1.50
2023-05-01T12:06:13.113Z,1.70
2023-05-01T12:08:51.214Z,1.42
2023-05-01T12:11:21.398Z,1.50
2023-05-01T12:13:50.449Z,1.40
2023-05-01T12:16:18.513Z,1.60
2023-05-01T12:18:47.043Z,1.80
2023-05-01T12:21:17.149Z,1.85
2023-05-01T12:23:45.453Z,2.20
2023-05-01T12:26:17.578Z,1.90
2023-05-01T12:28:57.348Z,1.58
2023-05-01T12:31:25.606Z,1.85
2023-05-01T12:33:57.722Z,1.60
2023-05-01T12:36:27.573Z,2.05
2023-05-01T12:38:57.429Z,1.75
2023-05-01T12:41:36.846Z,1.50
2023-05-01T12:44:17.114Z,1.60
2023-05-01T12:46:48.481Z,1.58
2023-05-01T12:49:19.720Z,2.20
2023-05-01T12:51:49.362Z,1.60
2023-05-01T12:54:24.454Z,1.40
2023-05-01T12:56:53.815Z,1.92
2023-05-01T12:59:25.827Z,1.70
2023-05-01T13:02:00.493Z,1.40
2023-05-01T13:04:29.327Z,1.80
2023-05-01T13:06:58.118Z,1.75
2023-05-01T13:09:27.307Z,1.90
2023-05-01T13:11:59.068Z,1.50
2023-05-01T13:14:30.133Z,1.65
2023-05-01T13:16:58.169Z,1.98
2023-05-01T13:19:28.931Z,1.90
2023-05-01T13:21:58.038Z,1.80
2023-05-01T13:24:37.138Z,1.83
2023-05-01T13:27:06.341Z,1.90
2023-05-01T13:29:35.781Z,1.85
2023-05-01T13:32:06.002Z,1.77
2023-05-01T13:34:35.284Z,1.85
2023-05-01T13:37:03.522Z,1.60
2023-05-01T13:39:31.532Z,1.90
2023-05-01T13:41:59.437Z,1.75
2023-05-01T13:44:28.337Z,1.80
2023-05-01T13:46:58.233Z,1.63
2023-05-01T13:49:27.005Z,1.83
2023-05-01T13:51:56.008Z,1.90
2023-05-01T13:54:24.394Z,2.20
2023-05-01T13:56:52.537Z,1.80
2023-05-01T13:59:20.452Z,1.80
2023-05-01T14:01:48.848Z,1.98
2023-05-01T14:04:21.334Z,1.75
2023-05-01T14:06:49.976Z,1.88
2023-05-01T14:09:19.424Z,1.70
2023-05-01T14:11:49.442Z,1.85
2023-05-01T14:14:18.873Z,1.75
2023-05-01T14:16:49.154Z,1.60
2023-05-01T14:19:21.637Z,1.73
2023-05-01T14:21:50.918Z,1.75
2023-05-01T14:24:19.242Z,1.60
2023-05-01T14:26:50.690Z,1.73
2023-05-01T14:29:24.756Z,1.70
2023-05-01T14:31:54.674Z,1.52
2023-05-01T14:34:26.799Z,1.55
2023-05-01T14:36:55.839Z,1.33
2023-05-01T14:39:24.160Z,1.80
2023-05-01T14:41:52.243Z,1.60
2023-05-01T14:44:20.845Z,1.40
2023-05-01T14:46:51.694Z,1.30
2023-05-01T14:49:21.890Z,1.70
2023-05-01T14:51:51.816Z,1.27
2023-05-01T14:54:20.802Z,1.40
2023-05-01T14:56:49.604Z,1.70
2023-05-01T14:59:17.513Z,1.90
2023-05-01T15:01:45.550Z,1.45
2023-05-01T15:04:14.439Z,1.60
2023-05-01T15:06:42.589Z,1.30
2023-05-01T15:09:12.896Z,1.60
2023-05-01T15:11:40.859Z,1.67
2023-05-01T15:14:09.148Z,1.60
2023-05-01T15:16:37.501Z,1.38
2023-05-01T15:19:06.020Z,1.38
2023-05-01T15:21:34.132Z,1.60
2023-05-01T15:24:02.073Z,1.63
2023-05-01T15:26:31.725Z,1.70
2023-05-01T15:28:59.717Z,1.60
2023-05-01T15:31:28.835Z,2.28
2023-05-01T15:33:57.497Z,1.63
2023-05-01T15:36:26.870Z,1.50
2023-05-01T15:38:54.898Z,1.70
2023-05-01T15:41:23.108Z,1.70
2023-05-01T15:43:52.450Z,1.42
2023-05-01T15:46:22.981Z,1.70
2023-05-01T15:48:51.779Z,1.42
2023-05-01T15:51:19.848Z,1.48
2023-05-01T15:53:47.709Z,1.77
2023-05-01T15:56:15.591Z,2.03
2023-05-01T15:58:43.704Z,1.67
2023-05-01T16:01:14.563Z,1.40
2023-05-01T16:03:45.805Z,1.70
2023-05-01T16:06:15.709Z,1.98
2023-05-01T16:08:43.885Z,1.90
2023-05-01T16:11:13.292Z,1.83
2023-05-01T16:13:41.721Z,1.50
2023-05-01T16:16:10.150Z,1.90
2023-05-01T16:18:41.775Z,1.98
2023-05-01T16:21:10.851Z,2.28
2023-05-01T16:23:39.686Z,2.70
2023-05-01T16:26:07.701Z,2.50
2023-05-01T16:28:35.789Z,2.20
2023-05-01T16:31:10.507Z,2.40
2023-05-01T16:33:46.454Z,2.28
2023-05-01T16:36:17.169Z,2.95
2023-05-01T16:38:45.896Z,2.35
2023-05-01T16:41:18.202Z,2.35
2023-05-01T16:43:46.596Z,2.55
2023-05-01T16:46:16.998Z,2.70
2023-05-01T16:48:46.374Z,2.40
2023-05-01T16:51:14.576Z,2.17
2023-05-01T16:53:42.710Z,2.45
2023-05-01T16:56:11.245Z,2.45
2023-05-01T16:58:39.441Z,2.40
2023-05-01T17:01:07.341Z,2.60
2023-05-01T17:03:37.225Z,2.63
2023-05-01T17:06:06.857Z,2.90
2023-05-01T17:08:34.886Z,2.75
2023-05-01T17:11:03.144Z,2.38
2023-05-01T17:13:31.225Z,2.85
2023-05-01T17:16:02.314Z,2.85
2023-05-01T17:18:32.560Z,2.60
2023-05-01T17:21:01.445Z,2.50
2023-05-01T17:23:30.902Z,2.55
2023-05-01T17:25:59.040Z,2.15
2023-05-01T17:28:27.044Z,2.50
2023-05-01T17:30:55.220Z,2.78
2023-05-01T17:33:23.240Z,2.20
2023-05-01T17:35:51.871Z,2.55
2023-05-01T17:38:19.871Z,2.35
2023-05-01T17:40:49.080Z,2.60
2023-05-01T17:43:17.017Z,2.00
2023-05-01T17:45:45.598Z,2.50
2023-05-01T17:48:14.226Z,2.13
2023-05-01T17:50:42.155Z,2.40
2023-05-01T17:53:10.870Z,2.30
2023-05-01T17:55:39.102Z,2.40
2023-05-01T17:58:09.952Z,2.38
2023-05-01T18:00:38.422Z,2.35
2023-05-01T18:03:06.398Z,2.80
2023-05-01T18:05:34.435Z,2.65
2023-05-01T18:08:02.343Z,2.83
2023-05-01T18:10:31.300Z,3.00
2023-05-01T18:12:59.317Z,3.20
2023-05-01T18:15:28.624Z,2.90
2023-05-01T18:17:56.693Z,3.35
2023-05-01T18:20:24.997Z,2.88
2023-05-01T18:22:53.294Z,2.60
2023-05-01T18:25:21.246Z,2.88
2023-05-01T18:27:49.320Z,2.42
2023-05-01T18:30:17.493Z,2.80
2023-05-01T18:32:48.799Z,3.20
2023-05-01T18:35:18.606Z,2.80
2023-05-01T18:37:46.670Z,3.20
2023-05-01T18:40:14.729Z,2.90
2023-05-01T18:42:42.868Z,2.75
2023-05-01T18:45:11.345Z,2.60
2023-05-01T18:47:39.541Z,2.55
2023-05-01T18:50:11.540Z,3.05
2023-05-01T18:52:41.878Z,2.57
2023-05-01T18:55:11.391Z,2.88
2023-05-01T18:57:41.801Z,3.22
2023-05-01T19:00:10.720Z,2.72
2023-05-01T19:02:39.256Z,2.47
2023-05-01T19:05:10.053Z,2.78
2023-05-01T19:07:38.317Z,3.10
2023-05-01T19:10:07.448Z,3.13
2023-05-01T19:12:35.579Z,3.00
2023-05-01T19:15:03.853Z,3.30
2023-05-01T19:17:32.346Z,3.40
2023-05-01T19:20:01.050Z,3.30
2023-05-01T19:22:30.729Z,3.70
2023-05-01T19:25:00.593Z,3.35
2023-05-01T19:27:28.972Z,3.65
2023-05-01T19:30:01.193Z,3.90
2023-05-01T19:32:29.629Z,4.00
2023-05-01T19:34:57.899Z,4.20
2023-05-01T19:37:27.341Z,3.58
2023-05-01T19:39:56.766Z,4.00
2023-05-01T19:42:25.371Z,3.85
2023-05-01T19:44:53.513Z,4.07
2023-05-01T19:47:21.480Z,3.72
2023-05-01T19:49:49.401Z,4.63
2023-05-01T19:52:17.378Z,4.30
2023-05-01T19:54:45.345Z,4.20
2023-05-01T19:57:14.799Z,4.50
2023-05-01T19:59:42.802Z,4.55
2023-05-01T20:02:10.803Z,4.38
2023-05-01T20:04:38.863Z,4.57
2023-05-01T20:07:06.860Z,4.20
2023-05-01T20:09:34.751Z,4.07
2023-05-01T20:12:03.394Z,4.03
2023-05-01T20:14:34.215Z,4.80
2023-05-01T20:17:02.540Z,4.30
2023-05-01T20:19:31.638Z,5.15
2023-05-01T20:21:59.572Z,4.45
2023-05-01T20:24:27.692Z,4.47
2023-05-01T20:26:55.991Z,5.22
2023-05-01T20:29:24.076Z,4.32
2023-05-01T20:31:53.342Z,4.57
2023-05-01T20:34:21.384Z,4.15
2023-05-01T20:36:49.216Z,5.10
2023-05-01T20:39:17.090Z,4.18
2023-05-01T20:41:45.233Z,5.32
2023-05-01T20:44:13.293Z,4.55
2023-05-01T20:46:41.280Z,4.57
2023-05-01T20:49:14.296Z,4.30
2023-05-01T20:51:46.977Z,4.10
2023-05-01T20:54:14.874Z,4.43
2023-05-01T20:56:42.767Z,3.75
2023-05-01T20:59:10.815Z,3.72
2023-05-01T21:01:38.732Z,4.47
2023-05-01T21:04:07.212Z,3.83
2023-05-01T21:06:36.569Z,3.47
2023-05-01T21:09:05.925Z,3.20
2023-05-01T21:11:33.797Z,3.78
2023-05-01T21:14:02.363Z,3.42
2023-05-01T21:16:30.272Z,3.22
2023-05-01T21:18:58.393Z,3.65
2023-05-01T21:21:26.997Z,3.45
2023-05-01T21:24:18.102Z,3.72
2023-05-01T21:26:46.042Z,3.50
2023-05-01T21:29:14.362Z,3.50
2023-05-01T21:31:42.333Z,3.13
2023-05-01T21:34:10.443Z,3.28
2023-05-01T21:36:43.242Z,3.30
2023-05-01T21:39:12.472Z,3.35
2023-05-01T21:41:40.589Z,3.70
2023-05-01T21:44:08.734Z,3.33
2023-05-01T21:46:37.116Z,2.95
2023-05-01T21:49:05.523Z,3.03
2023-05-01T21:51:33.517Z,3.40
2023-05-01T21:54:02.548Z,3.40
2023-05-01T21:56:32.125Z,3.13
2023-05-01T21:59:02.360Z,3.75
2023-05-01T22:01:30.526Z,2.80
2023-05-01T22:03:58.595Z,2.75
2023-05-01T22:06:27.032Z,2.80
2023-05-01T22:08:55.043Z,3.00
2023-05-01T22:11:24.416Z,2.42
2023-05-01T22:13:54.036Z,2.50
2023-05-01T22:16:21.967Z,2.70
2023-05-01T22:18:50.602Z,2.50
2023-05-01T22:21:18.942Z,2.30
2023-05-01T22:23:46.795Z,2.50
2023-05-01T22:26:14.742Z,2.40
2023-05-01T22:28:42.625Z,2.45
2023-05-01T22:31:11.903Z,2.60
2023-05-01T22:33:40.515Z,2.67
2023-05-01T22:36:08.577Z,2.10
2023-05-01T22:38:36.468Z,2.45
2023-05-01T22:41:04.714Z,2.40
2023-05-01T22:43:33.001Z,2.45
2023-05-01T22:46:00.941Z,2.28
2023-05-01T22:48:30.188Z,2.20
2023-05-01T22:50:58.058Z,2.35
2023-05-01T22:53:26.575Z,2.33
2023-05-01T22:55:54.444Z,2.80
2023-05-01T22:58:22.311Z,2.10
2023-05-01T23:00:50.195Z,2.00
2023-05-01T23:03:18.480Z,1.90
2023-05-01T23:05:48.822Z,2.22
2023-05-01T23:08:16.837Z,2.80
2023-05-01T23:10:44.786Z,2.15
2023-05-01T23:13:18.922Z,2.33
2023-05-01T23:15:49.676Z,2.50
2023-05-01T23:18:23.883Z,2.35
2023-05-01T23:20:53.686Z,2.10
2023-05-01T23:23:22.121Z,2.30
2023-05-01T23:25:50.953Z,2.08
2023-05-01T23:28:22.885Z,2.47
2023-05-01T23:30:55.049Z,2.28
2023-05-01T23:33:23.099Z,2.40
2023-05-01T23:35:50.979Z,2.30
2023-05-01T23:38:20.272Z,2.30
2023-05-01T23:40:49.717Z,2.15
2023-05-01T23:43:18.238Z,2.40
2023-05-01T23:45:46.175Z,2.22
2023-05-01T23:48:14.191Z,1.98
2023-05-01T23:50:42.620Z,2.60
2023-05-01T23:53:10.911Z,2.38
2023-05-01T23:55:42.682Z,2.72
2023-05-01T23:58:11.404Z,2.67
